Time;durP1;ratioP1;P1;durP2;ratioP2;P2;SDS_P1;SDS_P2;PMS_P1;PMS_P2;Temp;Humidity;BMP_temperature;BMP_pressure;BME280_temperature;BME280_humidity;BME280_pressure;Samples;Min_cycle;Max_cycle;Signal;HPM_P1;HPM_P2
2023/09/07 00:01:45;;;;;;;5.50;4.90;;;22.10;99.90;;;;;;5047017;28;20215;-68
2023/09/07 00:04:12;;;;;;;7.22;4.40;;;22.00;99.90;;;;;;5046528;28;20232;-68
2023/09/07 00:06:43;;;;;;;6.57;4.43;;;22.00;99.90;;;;;;5045618;28;20176;-68
2023/09/07 00:09:11;;;;;;;5.30;3.95;;;22.00;99.90;;;;;;5044405;28;20209;-66
2023/09/07 00:11:37;;;;;;;9.50;5.03;;;22.00;99.90;;;;;;5044714;28;20196;-68
2023/09/07 00:14:02;;;;;;;6.55;3.63;;;22.00;99.90;;;;;;5043028;28;20581;-68
2023/09/07 00:16:28;;;;;;;4.72;3.88;;;22.00;99.90;;;;;;5043992;28;20221;-67
2023/09/07 00:18:53;;;;;;;5.25;3.90;;;22.00;99.90;;;;;;5040290;28;20183;-68
2023/09/07 00:21:19;;;;;;;9.65;7.15;;;22.00;99.90;;;;;;5043934;28;20187;-68
2023/09/07 00:23:45;;;;;;;7.10;5.40;;;21.90;99.90;;;;;;5040685;28;20226;-68
2023/09/07 00:26:12;;;;;;;5.70;4.47;;;21.90;99.90;;;;;;5049684;28;20212;-68
2023/09/07 00:28:38;;;;;;;8.15;4.25;;;21.90;99.90;;;;;;5049077;28;20234;-68
2023/09/07 00:31:04;;;;;;;6.97;4.72;;;21.80;99.90;;;;;;5037709;28;20212;-68
2023/09/07 00:33:29;;;;;;;5.10;4.05;;;21.80;99.90;;;;;;5049123;28;20198;-68
2023/09/07 00:35:55;;;;;;;6.72;3.95;;;21.80;99.90;;;;;;5046378;28;20199;-67
2023/09/07 00:38:20;;;;;;;5.82;4.07;;;21.70;99.90;;;;;;5037815;28;20612;-67
2023/09/07 00:40:46;;;;;;;8.43;4.20;;;21.70;99.90;;;;;;5045176;28;20199;-67
2023/09/07 00:43:12;;;;;;;7.88;4.13;;;21.70;99.90;;;;;;5044776;28;20628;-68
2023/09/07 00:45:39;;;;;;;5.97;4.13;;;21.60;99.90;;;;;;5045938;28;20230;-68
2023/09/07 00:48:05;;;;;;;5.35;4.40;;;21.60;99.90;;;;;;5042752;28;20239;-67
2023/09/07 00:50:31;;;;;;;5.43;4.18;;;21.60;99.90;;;;;;5043826;28;20246;-69
2023/09/07 00:52:59;;;;;;;6.50;4.38;;;21.50;99.90;;;;;;5041917;28;20205;-66
2023/09/07 00:55:25;;;;;;;5.45;4.25;;;21.50;99.90;;;;;;5043036;28;20618;-68
2023/09/07 00:57:51;;;;;;;7.25;5.15;;;21.50;99.90;;;;;;5043187;28;20680;-68
2023/09/07 01:00:17;;;;;;;5.53;4.50;;;21.50;99.90;;;;;;5049655;28;20302;-69
2023/09/07 01:02:44;;;;;;;7.50;5.90;;;21.50;99.90;;;;;;5040024;28;20287;-68
2023/09/07 01:05:11;;;;;;;11.95;6.22;;;21.40;99.90;;;;;;5038330;28;20216;-68
2023/09/07 01:08:11;;;;;;;8.50;4.85;;;21.40;99.90;;;;;;5048581;28;20592;-68
2023/09/07 01:10:37;;;;;;;6.90;4.53;;;21.30;99.90;;;;;;5046632;28;20218;-67
2023/09/07 01:13:03;;;;;;;5.55;4.30;;;21.20;99.90;;;;;;5045291;28;20180;-68
2023/09/07 01:15:28;;;;;;;6.82;4.70;;;21.20;99.90;;;;;;5048317;28;20819;-68
2023/09/07 01:17:55;;;;;;;7.85;4.53;;;21.20;99.90;;;;;;5044355;28;20685;-68
2023/09/07 01:20:22;;;;;;;6.97;4.65;;;21.20;99.90;;;;;;5044713;28;20707;-69
2023/09/07 01:22:49;;;;;;;7.65;4.32;;;21.20;99.90;;;;;;5043363;28;20211;-69
2023/09/07 01:25:15;;;;;;;7.13;4.65;;;21.20;99.90;;;;;;5032259;28;20216;-69
2023/09/07 01:27:40;;;;;;;9.32;5.93;;;21.20;99.90;;;;;;5043592;28;20230;-67
2023/09/07 01:30:07;;;;;;;9.60;6.43;;;21.10;99.90;;;;;;5030808;28;20602;-66
2023/09/07 01:32:32;;;;;;;7.70;5.07;;;21.10;99.90;;;;;;5025251;28;20299;-68
2023/09/07 01:34:59;;;;;;;6.30;4.90;;;21.10;99.90;;;;;;5042492;28;20314;-68
2023/09/07 01:37:24;;;;;;;8.38;5.57;;;21.10;99.90;;;;;;5045728;28;20218;-68
2023/09/07 01:39:50;;;;;;;8.13;5.50;;;21.00;99.90;;;;;;5049250;28;20284;-68
2023/09/07 01:42:15;;;;;;;6.95;4.65;;;21.00;99.90;;;;;;5047859;28;20304;-68
2023/09/07 01:44:43;;;;;;;7.13;5.95;;;21.10;99.90;;;;;;5048720;28;20234;-68
2023/09/07 01:47:08;;;;;;;13.60;9.43;;;21.00;99.90;;;;;;5046088;28;20210;-69
2023/09/07 01:49:34;;;;;;;13.70;7.13;;;21.00;99.90;;;;;;5046372;28;20298;-68
2023/09/07 01:51:59;;;;;;;7.90;5.78;;;21.00;99.90;;;;;;5044903;28;20191;-68
2023/09/07 01:54:25;;;;;;;9.32;6.63;;;21.00;99.90;;;;;;5036299;28;20167;-68
2023/09/07 01:56:51;;;;;;;9.68;7.05;;;20.90;99.90;;;;;;5034678;28;20199;-69
2023/09/07 01:59:16;;;;;;;6.32;5.22;;;20.90;99.90;;;;;;5045392;28;20208;-68
2023/09/07 02:01:42;;;;;;;7.35;5.43;;;20.90;99.90;;;;;;5033784;28;20199;-68
2023/09/07 02:04:07;;;;;;;8.63;5.53;;;20.80;99.90;;;;;;5030892;28;20215;-68
2023/09/07 02:06:33;;;;;;;8.25;5.53;;;20.80;99.90;;;;;;5046917;28;20167;-68
2023/09/07 02:08:59;;;;;;;7.35;5.63;;;20.80;99.90;;;;;;5039155;28;20981;-68
2023/09/07 02:11:24;;;;;;;6.55;5.13;;;20.80;99.90;;;;;;5041514;28;20763;-68
2023/09/07 02:13:50;;;;;;;16.75;6.45;;;20.80;99.90;;;;;;5039987;28;20211;-68
2023/09/07 02:16:15;;;;;;;8.48;5.30;;;20.70;99.90;;;;;;5047739;28;20207;-67
2023/09/07 02:18:46;;;;;;;8.40;5.28;;;20.80;99.90;;;;;;5047856;28;20574;-68
2023/09/07 02:21:12;;;;;;;8.00;5.68;;;20.70;99.90;;;;;;5045796;28;20219;-68
2023/09/07 02:23:38;;;;;;;8.32;5.25;;;20.70;99.90;;;;;;5030339;28;20215;-65
2023/09/07 02:26:04;;;;;;;7.35;5.00;;;20.60;99.90;;;;;;5043650;28;20754;-67
2023/09/07 02:28:30;;;;;;;5.63;3.92;;;20.50;99.90;;;;;;5036742;28;20200;-68
2023/09/07 02:31:02;;;;;;;7.68;5.18;;;20.60;99.90;;;;;;5033730;28;20673;-68
2023/09/07 02:33:28;;;;;;;6.82;5.18;;;20.60;99.90;;;;;;5046585;28;20194;-68
2023/09/07 02:35:54;;;;;;;6.05;5.43;;;20.60;99.90;;;;;;5046843;28;20207;-68
2023/09/07 02:38:19;;;;;;;6.35;4.80;;;20.60;99.90;;;;;;5045587;28;20749;-68
2023/09/07 02:40:45;;;;;;;8.30;6.20;;;20.60;99.90;;;;;;5045768;28;20226;-67
2023/09/07 02:43:11;;;;;;;6.53;4.60;;;20.70;99.90;;;;;;5043042;28;20184;-67
2023/09/07 02:45:37;;;;;;;6.80;5.30;;;20.60;99.90;;;;;;5042132;28;20480;-68
2023/09/07 02:48:03;;;;;;;7.50;5.22;;;20.50;99.90;;;;;;5041588;28;20208;-68
2023/09/07 02:50:31;;;;;;;7.57;5.20;;;20.40;99.90;;;;;;5051357;28;20697;-68
2023/09/07 02:52:57;;;;;;;6.90;4.72;;;20.30;99.90;;;;;;5031001;28;20200;-68
2023/09/07 02:55:23;;;;;;;7.43;5.68;;;20.40;99.90;;;;;;5033226;28;20211;-68
2023/09/07 02:57:48;;;;;;;5.97;5.10;;;20.50;99.90;;;;;;5051432;28;20183;-68
2023/09/07 03:00:17;;;;;;;6.15;4.65;;;20.40;99.90;;;;;;5048365;28;20633;-69
2023/09/07 03:02:43;;;;;;;5.20;3.92;;;20.30;99.90;;;;;;5050002;28;20279;-68
2023/09/07 03:05:09;;;;;;;7.88;5.20;;;20.30;99.90;;;;;;5047956;28;20220;-68
2023/09/07 03:07:34;;;;;;;8.20;5.05;;;20.20;99.90;;;;;;5048055;28;20591;-69
2023/09/07 03:10:00;;;;;;;6.70;4.85;;;20.30;99.90;;;;;;5046048;28;20204;-68
2023/09/07 03:12:26;;;;;;;6.47;4.53;;;20.20;99.90;;;;;;5034724;28;20181;-69
2023/09/07 03:14:52;;;;;;;8.02;5.05;;;20.30;99.90;;;;;;5045950;28;20208;-68
2023/09/07 03:17:20;;;;;;;8.00;5.25;;;20.30;99.90;;;;;;5043937;28;20587;-68
2023/09/07 03:19:49;;;;;;;9.38;5.30;;;20.30;99.90;;;;;;5043507;28;20242;-68
2023/09/07 03:22:14;;;;;;;8.40;5.85;;;20.30;99.90;;;;;;5042078;28;20239;-68
2023/09/07 03:24:40;;;;;;;7.85;5.53;;;20.20;99.90;;;;;;5044560;28;20227;-68
2023/09/07 03:27:06;;;;;;;8.68;4.85;;;20.20;99.90;;;;;;5048820;28;20635;-68
2023/09/07 03:29:33;;;;;;;8.73;4.90;;;20.20;99.90;;;;;;5050432;28;20210;-69
2023/09/07 03:32:00;;;;;;;7.75;4.50;;;20.20;99.90;;;;;;5046963;28;20203;-68
2023/09/07 03:34:25;;;;;;;5.70;4.28;;;20.10;99.90;;;;;;5049091;28;20215;-68
2023/09/07 03:36:51;;;;;;;9.95;5.07;;;20.20;99.90;;;;;;5034707;28;20175;-68
2023/09/07 03:39:18;;;;;;;4.63;3.90;;;20.20;99.90;;;;;;5027969;28;20204;-68
2023/09/07 03:41:44;;;;;;;8.45;4.80;;;20.30;99.90;;;;;;5047384;28;20309;-67
2023/09/07 03:44:10;;;;;;;8.05;4.13;;;20.20;99.90;;;;;;5045644;28;20725;-67
2023/09/07 03:46:36;;;;;;;6.82;4.95;;;20.30;99.90;;;;;;5047302;28;20196;-68
2023/09/07 03:49:02;;;;;;;11.02;6.40;;;20.30;99.90;;;;;;5026977;28;20559;-66
2023/09/07 03:51:27;;;;;;;8.35;6.82;;;20.20;99.90;;;;;;5045002;28;20184;-68
2023/09/07 03:53:53;;;;;;;11.38;7.30;;;20.10;99.90;;;;;;5045018;28;20282;-68
2023/09/07 03:56:19;;;;;;;9.87;6.73;;;20.10;99.90;;;;;;5030647;28;20413;-67
2023/09/07 03:58:47;;;;;;;10.85;6.90;;;20.00;99.90;;;;;;5044513;28;20583;-68
2023/09/07 04:01:13;;;;;;;7.70;4.68;;;20.00;99.90;;;;;;5039983;28;20597;-68
2023/09/07 04:03:40;;;;;;;9.27;5.20;;;20.00;99.90;;;;;;5047829;28;20230;-68
2023/09/07 04:06:06;;;;;;;6.53;4.82;;;20.00;99.90;;;;;;5047135;28;20255;-69
2023/09/07 04:08:32;;;;;;;6.53;4.32;;;19.90;99.90;;;;;;5048890;28;20216;-68
2023/09/07 04:10:57;;;;;;;5.70;4.30;;;20.00;99.90;;;;;;5050401;28;20295;-68
2023/09/07 04:13:23;;;;;;;7.78;4.75;;;20.00;99.90;;;;;;5047732;28;20302;-68
2023/09/07 04:15:49;;;;;;;10.88;7.53;;;20.00;99.90;;;;;;5049102;28;20556;-68
2023/09/07 04:18:16;;;;;;;11.18;8.07;;;20.00;99.90;;;;;;5045836;28;20632;-66
2023/09/07 04:20:42;;;;;;;11.38;7.32;;;20.00;99.90;;;;;;5033033;28;20215;-68
2023/09/07 04:23:08;;;;;;;9.55;6.80;;;20.00;99.90;;;;;;5045282;28;20693;-68
2023/09/07 04:25:34;;;;;;;9.98;6.43;;;19.90;99.90;;;;;;5032549;28;20251;-68
2023/09/07 04:28:00;;;;;;;8.35;4.72;;;19.90;99.90;;;;;;5044840;28;20180;-68
2023/09/07 04:30:25;;;;;;;6.00;4.50;;;19.90;99.90;;;;;;5042918;28;20192;-68
2023/09/07 04:32:51;;;;;;;7.50;4.70;;;20.00;99.90;;;;;;5044518;28;20203;-69
2023/09/07 04:35:17;;;;;;;6.00;4.30;;;20.00;99.90;;;;;;5030039;28;20249;-69
2023/09/07 04:37:43;;;;;;;5.90;4.80;;;20.00;99.90;;;;;;5043431;28;20708;-69
2023/09/07 04:40:09;;;;;;;7.15;5.43;;;20.10;99.90;;;;;;5042173;28;20219;-68
2023/09/07 04:42:35;;;;;;;7.65;5.32;;;20.10;99.90;;;;;;5032086;28;20262;-69
2023/09/07 04:45:01;;;;;;;10.98;5.22;;;20.00;99.90;;;;;;5049720;28;20207;-69
2023/09/07 04:47:26;;;;;;;9.15;5.93;;;20.10;99.90;;;;;;5048186;28;20587;-69
2023/09/07 04:49:52;;;;;;;11.20;5.95;;;20.00;99.90;;;;;;5047902;28;20219;-69
2023/09/07 04:52:18;;;;;;;9.93;6.63;;;20.10;99.90;;;;;;5047300;28;20210;-67
2023/09/07 04:54:44;;;;;;;9.60;5.10;;;20.10;99.90;;;;;;5047689;28;20630;-67
2023/09/07 04:57:10;;;;;;;8.52;5.30;;;20.20;99.90;;;;;;5037236;28;20207;-68
2023/09/07 04:59:36;;;;;;;7.10;4.68;;;20.40;99.90;;;;;;5045635;28;20224;-69
2023/09/07 05:02:01;;;;;;;7.20;4.68;;;20.40;99.90;;;;;;5047544;28;20235;-68
2023/09/07 05:04:28;;;;;;;10.65;4.63;;;20.50;99.90;;;;;;5045172;28;20258;-69
2023/09/07 05:06:54;;;;;;;6.72;4.60;;;20.80;99.90;;;;;;5045058;28;20187;-68
2023/09/07 05:09:20;;;;;;;6.53;4.18;;;20.90;99.90;;;;;;5046847;28;20216;-67
2023/09/07 05:11:46;;;;;;;8.75;5.40;;;20.90;99.90;;;;;;5043446;28;20728;-69
2023/09/07 05:14:11;;;;;;;7.10;4.50;;;20.90;99.90;;;;;;5040947;28;20205;-69
2023/09/07 05:16:37;;;;;;;6.13;4.53;;;20.70;99.90;;;;;;5041470;28;20204;-73
2023/09/07 05:19:03;;;;;;;9.50;4.70;;;20.90;99.90;;;;;;5049474;28;20221;-67
2023/09/07 05:21:29;;;;;;;8.93;5.28;;;21.20;99.90;;;;;;5044776;28;20627;-68
2023/09/07 05:23:55;;;;;;;6.60;4.32;;;21.30;99.90;;;;;;5050069;28;20216;-70
2023/09/07 05:26:22;;;;;;;9.45;5.07;;;22.20;99.90;;;;;;5035967;28;20234;-69
2023/09/07 05:28:47;;;;;;;8.57;6.25;;;24.10;99.90;;;;;;5030415;28;20203;-70
2023/09/07 05:31:13;;;;;;;5.75;4.25;;;25.40;99.90;;;;;;5046193;28;20592;-68
2023/09/07 05:33:39;;;;;;;10.13;5.82;;;25.50;99.90;;;;;;5046215;28;20195;-69
2023/09/07 05:36:05;;;;;;;9.45;4.78;;;26.30;99.90;;;;;;5045880;28;20210;-68
2023/09/07 05:38:30;;;;;;;6.18;4.90;;;27.70;99.90;;;;;;5042947;28;20212;-70
2023/09/07 05:40:56;;;;;;;8.80;4.40;;;29.20;99.90;;;;;;5044616;28;20214;-70
2023/09/07 05:43:22;;;;;;;8.85;5.25;;;29.90;99.90;;;;;;5043769;28;20215;-75
2023/09/07 05:45:47;;;;;;;4.68;4.22;;;29.60;99.90;;;;;;5044048;28;20176;-73
2023/09/07 05:48:15;;;;;;;7.38;4.95;;;30.30;99.90;;;;;;5040578;28;20204;-72
2023/09/07 05:50:41;;;;;;;5.15;4.63;;;30.90;99.90;;;;;;5040938;28;20243;-73
2023/09/07 05:53:06;;;;;;;6.22;4.38;;;31.90;99.90;;;;;;5035086;28;20242;-71
2023/09/07 05:55:32;;;;;;;7.07;4.60;;;32.50;99.90;;;;;;5048982;28;20227;-72
2023/09/07 05:57:58;;;;;;;6.47;4.68;;;33.10;99.90;;;;;;5049647;28;20180;-75
2023/09/07 06:00:24;;;;;;;10.50;4.85;;;32.40;99.90;;;;;;5047497;28;20289;-70
2023/09/07 06:02:50;;;;;;;5.93;4.68;;;31.70;99.90;;;;;;5047896;28;20302;-72
2023/09/07 06:05:16;;;;;;;7.30;4.40;;;32.00;99.90;;;;;;5047995;28;20318;-71
2023/09/07 06:07:42;;;;;;;7.28;4.82;;;31.10;99.90;;;;;;5036857;28;20214;-73
2023/09/07 06:10:07;;;;;;;7.90;4.55;;;32.00;99.90;;;;;;5049812;28;20205;-74
2023/09/07 06:12:33;;;;;;;7.35;4.05;;;32.30;99.70;;;;;;5036637;28;20175;-73
2023/09/07 06:15:00;;;;;;;9.30;4.35;;;31.10;99.90;;;;;;5048920;28;20195;-72
2023/09/07 06:17:27;;;;;;;5.82;4.50;;;31.60;99.90;;;;;;5050493;28;20213;-72
2023/09/07 06:19:53;;;;;;;6.63;4.25;;;32.00;99.90;;;;;;5037555;28;20649;-73
2023/09/07 06:22:19;;;;;;;4.88;4.28;;;32.70;99.20;;;;;;5044257;28;20298;-71
2023/09/07 06:24:44;;;;;;;12.18;5.13;;;33.80;97.00;;;;;;5044918;28;20291;-73
2023/09/07 06:27:10;;;;;;;5.75;3.78;;;34.30;96.10;;;;;;5043653;28;20207;-72
2023/09/07 06:29:36;;;;;;;7.50;5.45;;;33.10;95.60;;;;;;5042889;28;20253;-72
2023/09/07 06:32:01;;;;;;;5.93;4.80;;;32.80;95.20;;;;;;5053671;28;20207;-74
2023/09/07 06:34:27;;;;;;;7.60;4.70;;;31.90;95.50;;;;;;5041946;28;20293;-72
2023/09/07 06:36:52;;;;;;;7.93;4.47;;;31.20;96.60;;;;;;5052117;28;20175;-73
2023/09/07 06:39:18;;;;;;;6.32;4.72;;;31.70;96.30;;;;;;5041314;28;20637;-74
2023/09/07 06:41:45;;;;;;;5.07;4.47;;;32.00;95.90;;;;;;5049485;28;20211;-74
2023/09/07 06:44:11;;;;;;;5.18;4.53;;;32.10;94.60;;;;;;5051456;28;20211;-73
2023/09/07 06:46:37;;;;;;;7.15;5.10;;;31.90;94.70;;;;;;5037743;28;20265;-73
2023/09/07 06:49:03;;;;;;;7.38;4.18;;;32.40;94.30;;;;;;5048415;28;20664;-73
2023/09/07 06:51:30;;;;;;;8.82;4.28;;;32.20;94.00;;;;;;5046283;28;20668;-73
2023/09/07 06:53:55;;;;;;;5.93;4.55;;;33.20;92.90;;;;;;5036947;28;20589;-74
2023/09/07 06:56:21;;;;;;;6.47;3.78;;;32.80;91.90;;;;;;5029474;28;20304;-72
2023/09/07 06:58:47;;;;;;;6.95;4.70;;;33.20;91.80;;;;;;5037661;28;20230;-74
2023/09/07 07:01:12;;;;;;;6.72;4.18;;;33.20;92.00;;;;;;5043742;28;20705;-73
2023/09/07 07:03:38;;;;;;;6.78;4.47;;;32.50;92.00;;;;;;5043123;28;20191;-74
2023/09/07 07:06:04;;;;;;;6.90;4.00;;;33.20;91.80;;;;;;5043462;28;20239;-73
2023/09/07 07:08:29;;;;;;;5.85;4.65;;;32.80;91.70;;;;;;5048894;28;20689;-73
2023/09/07 07:10:55;;;;;;;5.20;3.70;;;32.30;91.40;;;;;;5047647;28;20206;-75
2023/09/07 07:13:20;;;;;;;6.38;3.60;;;32.50;91.50;;;;;;5052062;28;20238;-73
2023/09/07 07:15:46;;;;;;;7.40;4.18;;;32.70;91.40;;;;;;5049103;28;20176;-73
2023/09/07 07:18:12;;;;;;;7.00;4.60;;;32.30;92.00;;;;;;5040150;28;20253;-74
2023/09/07 07:20:39;;;;;;;4.95;4.35;;;31.70;91.80;;;;;;5047184;28;20211;-73
2023/09/07 07:23:06;;;;;;;8.95;4.55;;;31.50;92.40;;;;;;5032891;28;20211;-73
2023/09/07 07:25:36;;;;;;;6.68;4.25;;;31.60;92.50;;;;;;5033882;28;20238;-72
2023/09/07 07:28:06;;;;;;;6.93;3.97;;;33.30;91.30;;;;;;5047578;28;20175;-72
2023/09/07 07:30:33;;;;;;;5.85;4.20;;;33.50;90.70;;;;;;5027614;28;20203;-72
2023/09/07 07:32:59;;;;;;;7.22;4.05;;;33.50;89.70;;;;;;5046276;28;20223;-72
2023/09/07 07:35:25;;;;;;;7.55;3.88;;;33.50;90.50;;;;;;5032404;28;20284;-74
2023/09/07 07:37:51;;;;;;;7.18;4.30;;;33.20;90.30;;;;;;5043988;28;20219;-73
2023/09/07 07:40:20;;;;;;;7.30;3.90;;;33.80;87.90;;;;;;5024696;28;20580;-73
2023/09/07 07:42:46;;;;;;;6.72;4.05;;;32.80;89.70;;;;;;5028975;28;20178;-73
2023/09/07 07:45:12;;;;;;;5.65;4.10;;;32.40;90.30;;;;;;5035617;28;20235;-73
2023/09/07 07:47:38;;;;;;;6.55;3.97;;;32.40;89.70;;;;;;5050606;28;20696;-74
2023/09/07 07:50:04;;;;;;;4.95;3.50;;;32.20;90.40;;;;;;5049882;28;20222;-73
2023/09/07 07:52:30;;;;;;;4.25;3.65;;;32.50;90.00;;;;;;5049452;28;20231;-74
2023/09/07 07:54:56;;;;;;;5.40;4.07;;;32.60;90.30;;;;;;5036391;28;20215;-71
2023/09/07 07:57:21;;;;;;;7.43;4.03;;;32.40;90.40;;;;;;5049186;28;20180;-72
2023/09/07 07:59:47;;;;;;;5.30;3.95;;;32.60;90.20;;;;;;5033844;28;20212;-74
2023/09/07 08:02:13;;;;;;;6.45;3.95;;;32.80;90.30;;;;;;5047389;28;20225;-73
2023/09/07 08:04:38;;;;;;;8.82;4.28;;;33.50;89.60;;;;;;5044156;28;20227;-73
2023/09/07 08:07:04;;;;;;;5.78;3.67;;;33.50;90.10;;;;;;5035571;28;20221;-72
2023/09/07 08:09:30;;;;;;;6.15;3.92;;;32.60;89.90;;;;;;5070795;23;20711;-74
2023/09/07 08:11:57;;;;;;;5.80;4.47;;;32.70;90.30;;;;;;5070721;28;20700;-74
2023/09/07 08:14:24;;;;;;;4.03;3.63;;;31.70;90.90;;;;;;5070391;28;20219;-73
2023/09/07 08:16:50;;;;;;;7.63;4.00;;;31.70;91.40;;;;;;5062032;28;20721;-73
2023/09/07 08:19:16;;;;;;;6.88;3.75;;;32.00;91.20;;;;;;5070044;28;20221;-71
2023/09/07 08:21:42;;;;;;;4.18;3.70;;;32.60;90.70;;;;;;5080275;28;20178;-73
2023/09/07 08:24:08;;;;;;;7.55;4.05;;;33.90;89.10;;;;;;5068650;28;20219;-73
2023/09/07 08:26:35;;;;;;;9.75;4.40;;;34.60;88.30;;;;;;5084407;28;20229;-74
2023/09/07 08:29:05;;;;;;;5.60;3.65;;;34.30;86.90;;;;;;5087922;28;20202;-73
2023/09/07 08:31:33;;;;;;;8.27;4.32;;;33.50;87.60;;;;;;5082006;28;20202;-73
2023/09/07 08:34:03;;;;;;;7.00;3.65;;;33.80;87.20;;;;;;5086547;28;20181;-74
2023/09/07 08:36:33;;;;;;;5.85;3.92;;;32.30;88.70;;;;;;5086445;28;20719;-72
2023/09/07 08:39:05;;;;;;;8.45;4.55;;;32.10;90.60;;;;;;5080710;28;20222;-72
2023/09/07 08:41:37;;;;;;;5.30;4.30;;;32.20;90.30;;;;;;5064142;28;20210;-71
2023/09/07 08:44:04;;;;;;;4.78;4.05;;;32.70;90.00;;;;;;5068687;28;20286;-72
2023/09/07 08:46:31;;;;;;;6.38;3.97;;;32.90;88.90;;;;;;5082664;28;20202;-73
2023/09/07 08:48:59;;;;;;;6.13;4.07;;;32.30;88.30;;;;;;5081009;28;20275;-71
2023/09/07 08:51:27;;;;;;;5.10;3.33;;;31.70;90.20;;;;;;5063510;28;20206;-73
2023/09/07 08:53:56;;;;;;;7.40;3.75;;;31.20;90.50;;;;;;5081262;28;20222;-73
2023/09/07 08:56:22;;;;;;;4.80;3.47;;;31.10;90.50;;;;;;5081173;28;20683;-72
2023/09/07 08:58:50;;;;;;;5.03;4.20;;;30.70;91.40;;;;;;5078235;28;20214;-73
2023/09/07 09:01:16;;;;;;;8.35;3.65;;;31.00;91.90;;;;;;5080015;28;20230;-73
2023/09/07 09:03:43;;;;;;;10.10;4.35;;;30.40;91.40;;;;;;5085209;28;20198;-71
2023/09/07 09:06:09;;;;;;;7.55;3.50;;;30.60;91.50;;;;;;5069763;28;20726;-73
2023/09/07 09:08:45;;;;;;;4.93;3.92;;;30.50;91.90;;;;;;5069354;28;20597;-72
2023/09/07 09:11:11;;;;;;;6.65;3.92;;;30.00;92.20;;;;;;5068627;28;20232;-72
2023/09/07 09:13:37;;;;;;;6.22;3.50;;;30.20;92.00;;;;;;5082533;28;20218;-73
2023/09/07 09:16:02;;;;;;;6.60;3.92;;;29.80;92.10;;;;;;5083265;28;20174;-73
2023/09/07 09:18:29;;;;;;;7.43;4.00;;;29.40;93.20;;;;;;5083792;28;20244;-73
2023/09/07 09:20:55;;;;;;;7.78;4.35;;;29.90;92.80;;;;;;5080773;28;20235;-72
2023/09/07 09:23:21;;;;;;;4.88;3.50;;;29.80;92.40;;;;;;5081821;28;20206;-73
2023/09/07 09:25:49;;;;;;;6.32;4.43;;;29.70;92.30;;;;;;5078736;28;20238;-73
2023/09/07 09:28:15;;;;;;;6.65;3.88;;;29.60;92.60;;;;;;5082378;28;20213;-72
2023/09/07 09:30:44;;;;;;;6.47;4.10;;;29.50;92.80;;;;;;5078900;28;20191;-73
2023/09/07 09:33:11;;;;;;;6.90;4.13;;;29.50;92.90;;;;;;5060147;28;20206;-72
2023/09/07 09:35:40;;;;;;;5.05;3.75;;;29.30;92.80;;;;;;5077465;28;20601;-73
2023/09/07 09:38:06;;;;;;;6.20;3.63;;;29.30;92.70;;;;;;5070407;28;20278;-73
2023/09/07 09:40:34;;;;;;;8.35;4.72;;;29.00;92.90;;;;;;5087816;28;20649;-72
2023/09/07 09:43:02;;;;;;;6.38;3.55;;;29.10;93.20;;;;;;5084272;28;20238;-72
2023/09/07 09:45:28;;;;;;;7.45;4.03;;;29.20;92.20;;;;;;5084250;28;20587;-71
2023/09/07 09:47:56;;;;;;;9.60;5.38;;;28.90;93.10;;;;;;5079750;28;20195;-72
2023/09/07 09:50:22;;;;;;;5.97;3.72;;;28.90;92.90;;;;;;5086863;28;20340;-71
2023/09/07 09:52:48;;;;;;;6.05;4.10;;;28.80;93.10;;;;;;5083081;28;20695;-71
2023/09/07 09:55:15;;;;;;;5.82;3.95;;;28.90;93.30;;;;;;5084780;28;20228;-72
2023/09/07 09:57:41;;;;;;;4.95;3.80;;;28.70;93.30;;;;;;5079924;28;20166;-71
2023/09/07 10:00:26;;;;;;;5.40;3.88;;;28.30;93.70;;;;;;5078466;28;20209;-70
2023/09/07 10:03:00;;;;;;;5.75;3.50;;;28.80;93.70;;;;;;5079601;28;20205;-71
2023/09/07 10:05:26;;;;;;;6.15;4.00;;;28.60;93.70;;;;;;5066016;28;20213;-72
2023/09/07 10:07:52;;;;;;;4.93;3.40;;;28.60;93.40;;;;;;5079125;28;20206;-72
2023/09/07 10:10:19;;;;;;;6.80;4.05;;;28.40;93.60;;;;;;5080709;28;20218;-72
2023/09/07 10:12:53;;;;;;;4.20;3.05;;;28.50;93.80;;;;;;5082321;28;20266;-70
2023/09/07 10:15:23;;;;;;;4.70;3.22;;;28.90;93.60;;;;;;5079830;28;20202;-73
2023/09/07 10:17:50;;;;;;;6.95;3.60;;;28.70;93.30;;;;;;5084268;28;20732;-70
2023/09/07 10:20:17;;;;;;;5.35;3.63;;;28.70;93.50;;;;;;5083822;28;20221;-72
2023/09/07 10:22:43;;;;;;;11.23;3.67;;;29.00;93.00;;;;;;5082064;28;20684;-73
2023/09/07 10:25:22;;;;;;;5.80;3.05;;;29.00;92.90;;;;;;5078407;28;20693;-72
2023/09/07 10:27:48;;;;;;;5.18;3.70;;;29.20;92.70;;;;;;5069136;28;20174;-73
2023/09/07 10:30:22;;;;;;;6.32;3.72;;;29.10;92.70;;;;;;5080560;28;20214;-72
2023/09/07 10:32:48;;;;;;;4.13;3.47;;;29.20;92.50;;;;;;5078831;28;20301;-72
2023/09/07 10:35:21;;;;;;;4.95;2.92;;;29.20;92.80;;;;;;5074414;28;20615;-72
2023/09/07 10:37:47;;;;;;;4.95;3.20;;;29.20;92.80;;;;;;5062597;28;20593;-73
2023/09/07 10:40:18;;;;;;;4.32;2.88;;;28.80;92.90;;;;;;5076899;28;20218;-72
2023/09/07 10:42:44;;;;;;;3.78;3.38;;;29.20;93.10;;;;;;5078014;28;20676;-71
2023/09/07 10:45:12;;;;;;;5.28;3.47;;;29.30;92.40;;;;;;5078368;28;20376;-72
2023/09/07 10:47:43;;;;;;;4.00;3.33;;;29.10;92.60;;;;;;5068916;28;20203;-72
2023/09/07 10:50:12;;;;;;;4.78;4.13;;;29.00;92.30;;;;;;5082100;28;20215;-71
2023/09/07 10:52:38;;;;;;;7.18;3.80;;;28.70;93.30;;;;;;5084561;28;20221;-72
2023/09/07 10:55:04;;;;;;;5.45;3.08;;;28.40;93.40;;;;;;5081864;28;20179;-71
2023/09/07 10:57:30;;;;;;;4.10;3.13;;;28.50;93.10;;;;;;5084807;28;20174;-71
2023/09/07 10:59:56;;;;;;;5.28;3.50;;;28.90;92.40;;;;;;5082829;28;20245;-70
2023/09/07 11:02:21;;;;;;;4.57;3.90;;;28.70;92.60;;;;;;5085314;28;20210;-72
2023/09/07 11:04:47;;;;;;;5.00;3.25;;;28.80;92.50;;;;;;5089112;28;20230;-72
2023/09/07 11:07:13;;;;;;;6.13;3.65;;;29.10;92.50;;;;;;5086638;28;20221;-71
2023/09/07 11:09:43;;;;;;;5.05;3.35;;;29.00;92.40;;;;;;5085752;28;20871;-72
2023/09/07 11:12:13;;;;;;;5.70;3.03;;;28.80;92.10;;;;;;5087215;28;20238;-72
2023/09/07 11:14:39;;;;;;;5.82;2.95;;;28.90;91.80;;;;;;5084675;28;20623;-72
2023/09/07 11:17:05;;;;;;;3.50;2.97;;;28.70;92.10;;;;;;5087015;28;20238;-71
2023/09/07 11:19:34;;;;;;;5.07;3.00;;;28.60;92.40;;;;;;5083214;28;20207;-72
2023/09/07 11:21:59;;;;;;;3.83;2.88;;;28.60;92.40;;;;;;5088079;28;20211;-72
2023/09/07 11:24:26;;;;;;;3.58;3.17;;;28.60;92.30;;;;;;5081613;28;20675;-72
2023/09/07 11:26:51;;;;;;;4.22;3.03;;;28.50;92.80;;;;;;5080407;28;20209;-72
2023/09/07 11:29:20;;;;;;;5.82;3.45;;;28.60;92.60;;;;;;5086284;28;20289;-72
2023/09/07 11:31:46;;;;;;;3.28;2.97;;;28.60;92.60;;;;;;5082510;28;20210;-72
2023/09/07 11:34:15;;;;;;;4.22;3.10;;;28.80;92.70;;;;;;5085621;28;21841;-71
2023/09/07 11:36:41;;;;;;;5.40;2.70;;;29.00;92.00;;;;;;5081905;28;20202;-72
2023/09/07 11:39:13;;;;;;;7.03;3.05;;;28.70;91.60;;;;;;5079824;28;20271;-71
2023/09/07 11:41:43;;;;;;;3.25;2.70;;;28.70;91.50;;;;;;5081810;28;20211;-71
2023/09/07 11:44:10;;;;;;;4.63;2.78;;;28.60;90.90;;;;;;5084885;28;20820;-71
2023/09/07 11:46:36;;;;;;;3.08;2.78;;;28.80;91.20;;;;;;5086938;28;20213;-71
2023/09/07 11:49:02;;;;;;;4.65;3.45;;;29.10;91.30;;;;;;5088121;28;20206;-70
2023/09/07 11:51:27;;;;;;;5.03;3.72;;;29.20;90.80;;;;;;5080422;28;20171;-73
2023/09/07 11:53:53;;;;;;;3.35;2.88;;;29.20;90.50;;;;;;5071038;28;20214;-72
2023/09/07 11:56:19;;;;;;;2.95;2.60;;;29.20;90.30;;;;;;5083628;28;20251;-72
2023/09/07 11:58:44;;;;;;;3.58;2.08;;;29.00;89.50;;;;;;5083308;28;20226;-73
2023/09/07 12:01:10;;;;;;;4.93;2.50;;;28.90;89.70;;;;;;5059906;28;20183;-72
2023/09/07 12:03:35;;;;;;;4.60;2.67;;;28.70;89.40;;;;;;5085488;28;20198;-72
2023/09/07 12:06:01;;;;;;;3.25;2.75;;;28.70;90.30;;;;;;5076312;28;20289;-72
2023/09/07 12:08:27;;;;;;;4.75;2.47;;;28.90;91.10;;;;;;5083893;28;20206;-73
2023/09/07 12:10:52;;;;;;;4.20;2.40;;;28.80;91.00;;;;;;5076546;28;20229;-73
2023/09/07 12:13:18;;;;;;;5.47;2.95;;;28.90;90.90;;;;;;5084190;28;20260;-69
2023/09/07 12:15:44;;;;;;;4.43;3.03;;;28.80;91.40;;;;;;5069834;28;20180;-71
2023/09/07 12:18:09;;;;;;;4.25;2.55;;;29.00;91.00;;;;;;5082890;28;20325;-74
2023/09/07 12:20:35;;;;;;;3.10;2.50;;;28.90;90.90;;;;;;5085020;28;20202;-75
2023/09/07 12:23:02;;;;;;;3.28;2.40;;;28.80;90.80;;;;;;5082091;28;20238;-73
2023/09/07 12:25:28;;;;;;;3.45;2.63;;;28.80;90.20;;;;;;5072452;28;20214;-74
2023/09/07 12:27:53;;;;;;;4.72;2.58;;;28.90;90.20;;;;;;5084140;28;20174;-74
2023/09/07 12:30:20;;;;;;;4.70;3.03;;;28.90;89.80;;;;;;5063931;28;20568;-75
2023/09/07 12:32:46;;;;;;;2.95;2.42;;;28.80;90.10;;;;;;5083988;28;20202;-74
2023/09/07 12:35:12;;;;;;;5.20;3.17;;;28.80;90.10;;;;;;5071904;28;20588;-74
2023/09/07 12:37:37;;;;;;;4.18;2.67;;;28.60;90.30;;;;;;5065289;28;20210;-74
2023/09/07 12:40:12;;;;;;;3.83;2.70;;;28.50;90.20;;;;;;5085132;28;20203;-73
2023/09/07 12:42:40;;;;;;;4.07;2.50;;;28.70;90.50;;;;;;5086622;28;20643;-74